Terminal Aerodrome Forecast
Issued by NWS

Home | Current Version | Previous Version | Text Only | Print | Product List | Glossary On
Versions: 1 2 3 4 5 6 7 8 9 10 11 12 13 14 15 16 17 18 19 20
289
FTUS44 KTSA 201727
TAFXNA
TAF
KXNA 201727Z 2018/2118 19009KT P6SM BKN100
      TEMPO 2018/2021 5SM -SHRA BKN025
     FM210000 20003KT P6SM BKN100
     FM210600 VRB03KT 4SM BR SCT007
     FM210900 00000KT 2SM BR OVC007
      TEMPO 2109/2113 1/2SM FG OVC003
     FM211500 34005KT 4SM BR OVC015=

USA.gov is the U.S. government's official web portal to all federal, state and local government web resources and services.